Terminal Aerodrome Forecast
Issued by NWS

Home | Current Version | Previous Version | Graphics & Text | Print | Product List | Glossary On
Versions: 1 2 3 4 5 6 7 8 9 10 11 12 13 14
000
FTUS43 KIWX 010031 AAA
TAFSBN
TAF AMD
KSBN 010031Z 0101/0124 32008KT P6SM SCT025
      TEMPO 0101/0102 6SM BR SCT006
     FM010500 31003KT 6SM BR SCT020
      TEMPO 0109/0112 3SM BR
     FM011300 33006KT P6SM BKN020
     FM011500 34008KT P6SM SCT040=

USA.gov is the U.S. government's official web portal to all federal, state and local government web resources and services.